Time;durP1;ratioP1;P1;durP2;ratioP2;P2;SDS_P1;SDS_P2;PMS_P1;PMS_P2;Temp;Humidity;BMP_temperature;BMP_pressure;BME280_temperature;BME280_humidity;BME280_pressure;Samples;Min_cycle;Max_cycle;Signal;HPM_P1;HPM_P2
2023/11/02 00:01:53;;;;;;;2.67;1.20;;;14.90;66.40;;;;;;6049171;29;20684;-72
2023/11/02 00:04:55;;;;;;;2.90;1.73;;;15.00;66.30;;;;;;6050442;29;20124;-72
2023/11/02 00:07:56;;;;;;;2.20;1.50;;;15.10;66.00;;;;;;6048503;29;20088;-72
2023/11/02 00:11:02;;;;;;;1.90;0.95;;;15.20;65.70;;;;;;6049796;29;20029;-74
2023/11/02 00:14:02;;;;;;;2.33;1.33;;;15.20;65.20;;;;;;6050304;29;20897;-73
2023/11/02 00:17:15;;;;;;;4.75;1.52;;;15.40;64.80;;;;;;6048565;29;20044;-73
2023/11/02 00:20:30;;;;;;;3.92;2.10;;;15.50;64.20;;;;;;6042826;29;20058;-73
2023/11/02 00:23:39;;;;;;;4.32;1.63;;;15.50;63.80;;;;;;6027067;29;20065;-72
2023/11/02 00:26:40;;;;;;;3.30;1.77;;;15.50;64.10;;;;;;6026898;29;20489;-72
2023/11/02 00:29:41;;;;;;;5.03;2.35;;;15.50;64.10;;;;;;6026149;29;20045;-72
2023/11/02 00:32:42;;;;;;;4.53;2.63;;;15.40;64.00;;;;;;6045366;29;20490;-72
2023/11/02 00:35:47;;;;;;;7.65;2.70;;;15.40;64.00;;;;;;6049232;29;20128;-72
2023/11/02 00:38:48;;;;;;;3.53;2.05;;;15.30;64.40;;;;;;6047583;29;20399;-73
2023/11/02 00:41:50;;;;;;;5.47;2.20;;;15.20;64.90;;;;;;6047733;29;20078;-72
2023/11/02 00:44:50;;;;;;;7.18;2.58;;;15.10;65.10;;;;;;6026345;29;20065;-72
2023/11/02 00:47:51;;;;;;;6.70;2.20;;;15.00;65.30;;;;;;6040379;29;20045;-73
2023/11/02 00:51:12;;;;;;;4.03;2.15;;;15.00;65.60;;;;;;6032367;29;20037;-71
2023/11/02 00:54:39;;;;;;;2.88;1.90;;;15.00;65.80;;;;;;6049478;29;20067;-72
2023/11/02 00:57:40;;;;;;;3.55;2.00;;;14.90;66.10;;;;;;6049140;29;20625;-72
2023/11/02 01:00:50;;;;;;;3.65;1.58;;;14.80;66.20;;;;;;6049019;29;20243;-71
2023/11/02 01:03:53;;;;;;;6.00;2.22;;;14.80;66.50;;;;;;6047486;29;20049;-72
2023/11/02 01:06:56;;;;;;;7.47;1.50;;;14.80;66.50;;;;;;6062982;29;20064;-74
2023/11/02 01:10:00;;;;;;;2.78;1.67;;;14.90;66.40;;;;;;6062642;29;20740;-72
2023/11/02 01:13:12;;;;;;;2.10;1.33;;;15.00;65.90;;;;;;6048701;29;20116;-72
2023/11/02 01:16:14;;;;;;;2.92;1.27;;;15.10;65.70;;;;;;6048855;29;20112;-73
2023/11/02 01:19:41;;;;;;;2.85;1.15;;;15.30;64.90;;;;;;6048088;29;20040;-72
2023/11/02 01:23:03;;;;;;;3.08;1.65;;;15.30;64.20;;;;;;6048165;29;20040;-72
2023/11/02 01:26:04;;;;;;;4.53;1.70;;;15.50;63.70;;;;;;6056902;29;20041;-71
2023/11/02 01:29:05;;;;;;;5.95;1.77;;;15.50;63.20;;;;;;6048268;29;20025;-73
2023/11/02 01:32:07;;;;;;;4.43;1.70;;;15.60;63.00;;;;;;6051111;29;20038;-71
2023/11/02 01:35:29;;;;;;;2.88;2.00;;;15.50;63.00;;;;;;6028776;29;20048;-72
2023/11/02 01:38:31;;;;;;;2.92;1.60;;;15.50;63.20;;;;;;6029714;29;20033;-72
2023/11/02 01:41:56;;;;;;;5.93;1.38;;;15.40;63.30;;;;;;6042441;29;20043;-75
2023/11/02 01:45:06;;;;;;;2.67;1.00;;;15.40;63.30;;;;;;6044143;29;20056;-72
2023/11/02 01:48:25;;;;;;;1.77;1.23;;;15.40;63.00;;;;;;6062141;29;20149;-73
2023/11/02 01:51:40;;;;;;;1.40;0.93;;;15.60;62.60;;;;;;6051285;29;20037;-71
2023/11/02 01:54:56;;;;;;;1.30;0.90;;;15.70;62.20;;;;;;6051360;29;20104;-73
2023/11/02 01:58:11;;;;;;;0.65;0.65;;;15.80;61.80;;;;;;6051378;29;20116;-72
2023/11/02 02:01:56;;;;;;;1.75;1.30;;;15.80;61.30;;;;;;6051203;29;20493;-73
2023/11/02 02:05:30;;;;;;;2.53;1.00;;;15.90;61.20;;;;;;5980588;29;20546;-73
2023/11/02 02:08:56;;;;;;;1.30;0.60;;;16.00;60.30;;;;;;5964543;29;20049;-72
2023/11/02 02:12:12;;;;;;;0.60;0.38;;;16.20;59.50;;;;;;5979843;29;20121;-73
2023/11/02 02:15:31;;;;;;;1.00;0.20;;;16.40;58.40;;;;;;5980561;29;20066;-73
2023/11/02 02:18:51;;;;;;;2.78;0.38;;;16.70;56.10;;;;;;5949726;29;20529;-71
2023/11/02 02:21:59;;;;;;;2.20;0.45;;;17.30;53.70;;;;;;5980143;29;20254;-72
2023/11/02 02:24:59;;;;;;;;;;;17.80;52.70;;;;;;5980836;29;20034;-72
2023/11/02 02:28:15;;;;;;;0.08;0.00;;;18.20;52.00;;;;;;5979858;29;20374;-73
2023/11/02 02:31:43;;;;;;;0.10;0.10;;;18.60;49.60;;;;;;5979509;29;20125;-76
2023/11/02 02:35:02;;;;;;;0.32;0.15;;;19.00;46.70;;;;;;5993178;29;20061;-74
2023/11/02 02:38:17;;;;;;;0.20;0.10;;;19.40;45.50;;;;;;6029046;29;20048;-73
2023/11/02 02:41:21;;;;;;;0.63;0.25;;;19.70;45.40;;;;;;6039125;29;20605;-75
2023/11/02 02:44:25;;;;;;;0.43;0.13;;;19.90;44.10;;;;;;6050072;29;20072;-72
2023/11/02 02:47:27;;;;;;;0.30;0.30;;;20.00;44.20;;;;;;6034735;29;20128;-74
2023/11/02 02:50:30;;;;;;;5.20;2.80;;;20.10;42.50;;;;;;6051377;29;20041;-75
2023/11/02 02:53:38;;;;;;;0.20;0.10;;;20.20;42.40;;;;;;6050235;29;20376;-73
2023/11/02 02:56:41;;;;;;;0.00;0.00;;;20.20;43.00;;;;;;6053635;29;20037;-73
2023/11/02 02:59:47;;;;;;;1.10;0.20;;;20.30;43.70;;;;;;6052361;29;20071;-74
2023/11/02 03:02:51;;;;;;;3.38;0.30;;;20.30;43.10;;;;;;6051743;29;20073;-73
2023/11/02 03:05:54;;;;;;;0.10;0.10;;;20.30;43.50;;;;;;6050064;29;20033;-72
2023/11/02 03:08:58;;;;;;;2.55;0.40;;;20.30;43.20;;;;;;6050998;29;20395;-73
2023/11/02 03:12:10;;;;;;;3.50;0.32;;;20.30;42.90;;;;;;6038969;29;20108;-72
2023/11/02 03:15:13;;;;;;;2.42;0.40;;;20.30;43.10;;;;;;6028283;29;20124;-72
2023/11/02 03:18:14;;;;;;;1.02;0.38;;;20.30;43.10;;;;;;6038679;29;20029;-74
2023/11/02 03:21:16;;;;;;;4.65;0.55;;;20.30;42.80;;;;;;6045040;29;20119;-73
2023/11/02 03:24:31;;;;;;;0.40;0.22;;;20.30;43.20;;;;;;6049549;29;20044;-73
2023/11/02 03:27:59;;;;;;;2.67;0.22;;;20.30;43.10;;;;;;6050972;29;20131;-73
2023/11/02 03:31:06;;;;;;;0.25;0.13;;;20.30;43.10;;;;;;6051229;29;20044;-75
2023/11/02 03:34:16;;;;;;;2.67;0.40;;;20.20;43.20;;;;;;6049346;29;20028;-72
2023/11/02 03:37:31;;;;;;;1.88;0.20;;;20.30;43.50;;;;;;6049138;29;20029;-74
2023/11/02 03:40:47;;;;;;;4.05;0.30;;;20.20;43.10;;;;;;6064225;29;20096;-75
2023/11/02 03:43:56;;;;;;;1.55;0.30;;;20.20;42.50;;;;;;6050118;29;20053;-73
2023/11/02 03:47:23;;;;;;;1.65;0.30;;;20.20;43.00;;;;;;6064761;29;20057;-72
2023/11/02 03:50:56;;;;;;;0.65;0.17;;;20.30;43.30;;;;;;6064309;29;20143;-72
2023/11/02 03:54:11;;;;;;;3.63;0.35;;;20.20;42.80;;;;;;6050526;29;20033;-73
2023/11/02 03:57:41;;;;;;;0.17;0.10;;;20.30;43.00;;;;;;6050613;29;20117;-73
2023/11/02 04:01:08;;;;;;;2.22;0.20;;;20.30;42.80;;;;;;6049929;29;20052;-71
2023/11/02 04:04:13;;;;;;;3.45;0.43;;;20.30;41.80;;;;;;6049125;29;20029;-74
2023/11/02 04:07:22;;;;;;;0.10;0.10;;;20.40;41.30;;;;;;6064592;29;20135;-72
2023/11/02 04:10:26;;;;;;;0.98;0.40;;;20.50;41.70;;;;;;6050272;29;20139;-72
2023/11/02 04:13:40;;;;;;;5.22;0.63;;;20.50;41.70;;;;;;6027615;29;20064;-74
2023/11/02 04:16:41;;;;;;;1.38;0.17;;;20.60;40.70;;;;;;6027610;29;20119;-73
2023/11/02 04:19:43;;;;;;;4.32;0.20;;;20.60;40.60;;;;;;6027861;29;20045;-72
2023/11/02 04:22:44;;;;;;;0.20;0.20;;;20.70;41.10;;;;;;6048516;29;20116;-74
2023/11/02 04:25:45;;;;;;;0.10;0.10;;;20.70;41.00;;;;;;6050280;29;20089;-73
2023/11/02 04:28:46;;;;;;;0.47;0.20;;;20.60;40.90;;;;;;6049912;29;20131;-74
2023/11/02 04:31:47;;;;;;;0.15;0.10;;;20.70;40.70;;;;;;6053090;29;20707;-73
2023/11/02 04:34:48;;;;;;;0.47;0.20;;;20.80;40.60;;;;;;6049706;29;20026;-73
2023/11/02 04:38:09;;;;;;;1.98;0.38;;;20.80;40.80;;;;;;6046187;29;20053;-71
2023/11/02 04:41:10;;;;;;;0.20;0.10;;;20.80;41.00;;;;;;6049533;29;20021;-73
2023/11/02 04:44:11;;;;;;;2.85;0.15;;;20.90;41.00;;;;;;6049788;29;20348;-76
2023/11/02 04:47:14;;;;;;;3.78;0.20;;;20.90;41.00;;;;;;6049440;29;20462;-74
2023/11/02 04:50:14;;;;;;;0.10;0.10;;;20.90;40.80;;;;;;6047748;29;20518;-73
2023/11/02 04:53:17;;;;;;;1.70;0.40;;;20.90;40.70;;;;;;6049650;29;20116;-73
2023/11/02 04:56:19;;;;;;;0.35;0.13;;;20.90;40.80;;;;;;6048984;29;20759;-73
2023/11/02 04:59:19;;;;;;;0.20;0.20;;;20.90;40.90;;;;;;6048895;29;20061;-72
2023/11/02 05:02:22;;;;;;;0.03;0.03;;;20.90;40.90;;;;;;6049021;29;20774;-73
2023/11/02 05:05:23;;;;;;;0.45;0.10;;;20.90;40.60;;;;;;6032112;29;20041;-74
2023/11/02 05:08:24;;;;;;;1.13;0.20;;;21.00;40.70;;;;;;6050306;29;20073;-75
2023/11/02 05:11:25;;;;;;;0.45;0.17;;;21.00;41.00;;;;;;6059945;29;20153;-73
2023/11/02 05:14:26;;;;;;;5.93;0.35;;;21.00;41.10;;;;;;6051514;29;20120;-74
2023/11/02 05:17:26;;;;;;;0.95;0.30;;;21.00;41.30;;;;;;6049023;29;20184;-74
2023/11/02 05:20:27;;;;;;;0.80;0.20;;;21.00;41.50;;;;;;6023771;29;20094;-74
2023/11/02 05:23:28;;;;;;;1.35;0.38;;;20.90;41.50;;;;;;6024434;29;20401;-74
2023/11/02 05:26:31;;;;;;;0.60;0.30;;;20.90;41.60;;;;;;6025846;29;20101;-74
2023/11/02 05:29:32;;;;;;;0.85;0.10;;;20.90;41.60;;;;;;6025368;29;20026;-75
2023/11/02 05:32:33;;;;;;;1.25;0.35;;;20.90;41.30;;;;;;6038279;29;20041;-73
2023/11/02 05:35:33;;;;;;;1.55;0.20;;;20.90;41.50;;;;;;6048650;29;20081;-73
2023/11/02 05:38:34;;;;;;;0.30;0.20;;;21.00;41.70;;;;;;6048508;29;20325;-74
2023/11/02 05:41:35;;;;;;;0.35;0.20;;;21.00;41.90;;;;;;6048598;29;20077;-74
2023/11/02 05:44:36;;;;;;;0.38;0.28;;;20.90;41.60;;;;;;6048398;29;20424;-74
2023/11/02 05:47:37;;;;;;;0.30;0.28;;;21.00;42.00;;;;;;6048737;29;20619;-74
2023/11/02 05:50:38;;;;;;;0.32;0.30;;;20.90;42.10;;;;;;6062522;29;20402;-73
2023/11/02 05:53:38;;;;;;;5.50;0.20;;;20.90;42.30;;;;;;6047203;29;20069;-73
2023/11/02 05:56:39;;;;;;;0.40;0.17;;;20.90;42.30;;;;;;6048912;29;20164;-75
2023/11/02 05:59:40;;;;;;;0.28;0.20;;;20.90;42.60;;;;;;6046965;29;20029;-74
2023/11/02 06:02:41;;;;;;;2.28;0.20;;;20.90;42.90;;;;;;6048899;29;20033;-73
2023/11/02 06:05:42;;;;;;;6.05;0.28;;;20.90;42.90;;;;;;6063170;29;20377;-72
2023/11/02 06:08:43;;;;;;;1.13;0.35;;;20.80;43.10;;;;;;6052852;29;20431;-73
2023/11/02 06:11:44;;;;;;;0.13;0.13;;;20.90;43.40;;;;;;6053680;29;20099;-73
2023/11/02 06:14:45;;;;;;;0.20;0.20;;;20.80;43.40;;;;;;6051056;29;20045;-73
2023/11/02 06:17:46;;;;;;;0.35;0.17;;;20.80;43.50;;;;;;6050846;29;20033;-73
2023/11/02 06:20:47;;;;;;;0.45;0.25;;;20.80;43.60;;;;;;6044248;29;20209;-73
2023/11/02 06:23:48;;;;;;;0.60;0.43;;;20.80;43.80;;;;;;6052166;29;20040;-73
2023/11/02 06:26:48;;;;;;;0.40;0.30;;;20.80;43.90;;;;;;6050895;29;20048;-75
2023/11/02 06:29:50;;;;;;;0.52;0.30;;;20.90;44.10;;;;;;6051228;29;20036;-72
2023/11/02 06:32:51;;;;;;;0.85;0.30;;;20.90;44.10;;;;;;6066300;29;20029;-73
2023/11/02 06:35:52;;;;;;;0.30;0.20;;;20.90;44.30;;;;;;6052333;29;20403;-73
2023/11/02 06:38:52;;;;;;;0.50;0.20;;;20.90;44.40;;;;;;6050705;29;20119;-73
2023/11/02 06:41:54;;;;;;;0.10;0.10;;;20.90;44.50;;;;;;6052112;29;20060;-74
2023/11/02 06:44:55;;;;;;;0.10;0.10;;;20.90;44.60;;;;;;6052556;29;20048;-72
2023/11/02 06:47:56;;;;;;;0.75;0.20;;;20.90;44.60;;;;;;6054142;29;20146;-73
2023/11/02 06:50:57;;;;;;;0.50;0.15;;;20.90;44.60;;;;;;6066751;29;20036;-75
2023/11/02 06:53:58;;;;;;;0.13;0.13;;;20.90;44.40;;;;;;6052228;29;20029;-74
2023/11/02 06:57:02;;;;;;;1.65;0.30;;;21.00;44.60;;;;;;6066848;29;20092;-73
2023/11/02 07:00:09;;;;;;;0.68;0.28;;;21.00;44.60;;;;;;6053301;29;20033;-71
2023/11/02 07:03:11;;;;;;;0.52;0.28;;;21.00;44.70;;;;;;6049802;29;20045;-74
2023/11/02 07:06:11;;;;;;;1.25;0.20;;;21.10;44.70;;;;;;6056174;29;20560;-71
2023/11/02 07:09:14;;;;;;;0.65;0.35;;;21.00;44.70;;;;;;6052017;29;20047;-73
2023/11/02 07:12:14;;;;;;;0.20;0.20;;;21.00;44.80;;;;;;6051349;29;20049;-74
2023/11/02 07:15:15;;;;;;;0.75;0.20;;;21.10;44.90;;;;;;6050039;29;20517;-74
2023/11/02 07:18:16;;;;;;;0.75;0.20;;;21.10;45.00;;;;;;6050679;29;20209;-72
2023/11/02 07:21:17;;;;;;;0.20;0.20;;;21.10;44.90;;;;;;6035036;29;20086;-74
2023/11/02 07:24:18;;;;;;;0.25;0.10;;;21.20;44.90;;;;;;6035892;29;20462;-76
2023/11/02 07:27:19;;;;;;;1.65;0.20;;;21.30;44.80;;;;;;6051043;29;20053;-73
2023/11/02 07:30:20;;;;;;;0.10;0.10;;;21.40;44.80;;;;;;6050832;29;20037;-73
2023/11/02 07:33:21;;;;;;;4.00;0.40;;;21.40;44.80;;;;;;6051121;29;20040;-73
2023/11/02 07:36:21;;;;;;;0.95;0.20;;;21.50;44.90;;;;;;6049477;29;20029;-76
2023/11/02 07:39:23;;;;;;;0.57;0.20;;;21.50;44.90;;;;;;6050538;29;20060;-72
2023/11/02 07:42:24;;;;;;;0.17;0.17;;;21.50;44.90;;;;;;6050811;29;20029;-73
2023/11/02 07:45:25;;;;;;;2.10;0.17;;;21.60;44.80;;;;;;6050402;29;20367;-72
2023/11/02 07:48:26;;;;;;;0.52;0.20;;;21.70;44.90;;;;;;6050022;29;20052;-74
2023/11/02 07:51:28;;;;;;;0.90;0.30;;;21.80;44.60;;;;;;6050641;29;20043;-72
2023/11/02 07:54:28;;;;;;;0.22;0.10;;;21.80;44.30;;;;;;6048967;29;20121;-72
2023/11/02 07:57:29;;;;;;;0.15;0.15;;;21.90;44.30;;;;;;6050223;29;20041;-73
2023/11/02 08:00:30;;;;;;;0.20;0.20;;;22.00;44.30;;;;;;6049638;29;20625;-77
2023/11/02 08:03:31;;;;;;;2.90;0.28;;;22.00;44.50;;;;;;6050129;29;20075;-71
2023/11/02 08:06:32;;;;;;;1.85;0.52;;;21.70;46.80;;;;;;6050025;29;20021;-73
2023/11/02 08:09:34;;;;;;;2.42;0.73;;;21.10;49.00;;;;;;6048643;29;20461;-73
2023/11/02 08:12:34;;;;;;;1.05;0.32;;;20.40;51.40;;;;;;6049536;29;20031;-72
2023/11/02 08:15:36;;;;;;;0.52;0.25;;;19.70;55.10;;;;;;6049933;29;20025;-73
2023/11/02 08:18:37;;;;;;;2.00;0.35;;;18.90;57.90;;;;;;6049528;29;20104;-74
2023/11/02 08:21:38;;;;;;;0.82;0.43;;;18.40;59.70;;;;;;6049668;29;20041;-73
2023/11/02 08:24:39;;;;;;;0.57;0.20;;;17.70;61.30;;;;;;6050297;29;20392;-73
2023/11/02 08:27:40;;;;;;;2.33;0.57;;;17.30;62.60;;;;;;6049872;29;20394;-75
2023/11/02 08:30:41;;;;;;;0.15;0.05;;;16.90;63.50;;;;;;6047533;29;20028;-75
2023/11/02 08:33:42;;;;;;;1.55;0.10;;;16.60;64.50;;;;;;6049084;29;20466;-74
2023/11/02 08:36:43;;;;;;;0.13;0.10;;;16.30;64.80;;;;;;6050366;29;20033;-71
2023/11/02 08:39:44;;;;;;;1.10;0.20;;;16.10;65.00;;;;;;6049966;29;20453;-74
2023/11/02 08:42:45;;;;;;;0.00;0.00;;;15.90;65.40;;;;;;6050554;29;20044;-74
2023/11/02 08:45:46;;;;;;;0.08;0.08;;;15.60;65.60;;;;;;6033153;29;20045;-73
2023/11/02 08:48:48;;;;;;;0.45;0.13;;;15.40;66.00;;;;;;6050201;29;20123;-74
2023/11/02 08:51:49;;;;;;;1.85;0.13;;;15.20;67.10;;;;;;6065891;29;20117;-75
2023/11/02 08:54:50;;;;;;;1.38;0.28;;;15.10;66.40;;;;;;6058546;29;20531;-73
2023/11/02 08:57:51;;;;;;;0.30;0.10;;;14.90;66.40;;;;;;6072297;29;20419;-74
2023/11/02 09:00:52;;;;;;;0.47;0.03;;;14.80;66.80;;;;;;6048326;29;20161;-74
2023/11/02 09:03:57;;;;;;;0.00;0.00;;;14.80;66.90;;;;;;6048169;29;20048;-75
2023/11/02 09:06:58;;;;;;;0.08;0.05;;;14.70;66.80;;;;;;6049245;29;20105;-75
2023/11/02 09:09:59;;;;;;;0.65;0.20;;;14.70;66.30;;;;;;6047752;29;20037;-73
2023/11/02 09:12:59;;;;;;;0.00;0.00;;;14.60;66.30;;;;;;6032294;29;20033;-75
2023/11/02 09:16:00;;;;;;;0.15;0.10;;;14.50;66.20;;;;;;6047372;29;20063;-73
2023/11/02 09:19:02;;;;;;;0.90;0.20;;;14.50;66.30;;;;;;6050482;29;20052;-76
2023/11/02 09:22:03;;;;;;;0.00;0.00;;;14.60;66.60;;;;;;6051745;29;20037;-74
2023/11/02 09:25:05;;;;;;;0.60;0.20;;;14.60;66.70;;;;;;6049079;29;20051;-72
2023/11/02 09:28:05;;;;;;;0.20;0.10;;;14.60;66.50;;;;;;6047248;29;20162;-72
2023/11/02 09:31:07;;;;;;;0.10;0.10;;;14.60;66.20;;;;;;6031696;29;20033;-73
2023/11/02 09:34:10;;;;;;;0.60;0.20;;;14.70;66.20;;;;;;6048859;29;20040;-74
2023/11/02 09:37:11;;;;;;;0.35;0.20;;;14.70;66.20;;;;;;6048998;29;20051;-73
2023/11/02 09:40:12;;;;;;;0.20;0.10;;;14.70;66.00;;;;;;6044114;29;20038;-76
2023/11/02 09:43:13;;;;;;;0.17;0.15;;;14.70;66.00;;;;;;6039097;29;20064;-72
2023/11/02 09:46:14;;;;;;;3.38;0.32;;;14.70;66.20;;;;;;6067463;29;20612;-72
2023/11/02 09:49:15;;;;;;;0.00;0.00;;;14.70;65.80;;;;;;6051960;29;20036;-75
2023/11/02 09:52:17;;;;;;;0.00;0.00;;;14.70;65.10;;;;;;6053544;29;20068;-74
2023/11/02 09:55:18;;;;;;;2.83;0.40;;;14.70;64.50;;;;;;6067580;29;20128;-75
2023/11/02 09:58:20;;;;;;;0.17;0.15;;;14.70;64.50;;;;;;6053783;29;20037;-74
2023/11/02 10:01:21;;;;;;;0.32;0.20;;;14.80;64.40;;;;;;6052109;29;20082;-73
2023/11/02 10:04:22;;;;;;;0.22;0.17;;;14.80;63.90;;;;;;6051843;29;20087;-74
2023/11/02 10:07:23;;;;;;;0.57;0.40;;;14.80;63.70;;;;;;6036625;29;20063;-73
2023/11/02 10:10:31;;;;;;;0.82;0.40;;;14.80;64.10;;;;;;6066985;29;20108;-74
2023/11/02 10:13:32;;;;;;;1.92;0.82;;;14.90;64.50;;;;;;6041971;29;20413;-75
2023/11/02 10:16:32;;;;;;;7.00;1.90;;;14.90;64.90;;;;;;6050766;29;20077;-75
2023/11/02 10:19:33;;;;;;;3.10;1.42;;;15.00;66.00;;;;;;6052154;29;20113;-74
2023/11/02 10:22:35;;;;;;;3.10;0.95;;;15.00;67.00;;;;;;6066617;29;20036;-73
2023/11/02 10:25:39;;;;;;;2.88;1.10;;;15.10;67.50;;;;;;6052842;29;20040;-73
2023/11/02 10:28:41;;;;;;;0.77;0.77;;;15.10;67.20;;;;;;6052394;29;20051;-73
2023/11/02 10:31:43;;;;;;;0.60;0.45;;;15.00;66.50;;;;;;6050842;29;20068;-73
2023/11/02 10:34:44;;;;;;;1.60;1.02;;;14.80;66.90;;;;;;6052600;29;20215;-74
2023/11/02 10:37:45;;;;;;;4.13;0.70;;;14.70;67.50;;;;;;6052401;29;20032;-73
2023/11/02 10:40:50;;;;;;;1.05;0.45;;;14.60;68.60;;;;;;6050287;29;20079;-74
2023/11/02 10:43:55;;;;;;;1.27;0.52;;;14.50;68.90;;;;;;6051644;29;20092;-74
2023/11/02 10:47:03;;;;;;;0.30;0.30;;;14.50;69.20;;;;;;6050375;29;20033;-75
2023/11/02 10:50:06;;;;;;;3.43;0.90;;;14.40;69.20;;;;;;6051828;29;20056;-72
2023/11/02 10:53:17;;;;;;;3.45;0.60;;;14.50;69.30;;;;;;6054027;29;20085;-73
2023/11/02 10:56:22;;;;;;;4.63;1.50;;;14.50;69.30;;;;;;6052506;29;20109;-73
2023/11/02 10:59:23;;;;;;;1.63;0.77;;;14.50;69.10;;;;;;6050620;29;20037;-75
2023/11/02 11:02:25;;;;;;;3.78;1.10;;;14.50;69.00;;;;;;6050855;29;20033;-76
2023/11/02 11:05:27;;;;;;;2.40;1.15;;;14.60;69.00;;;;;;6050803;29;20033;-73
2023/11/02 11:08:29;;;;;;;11.75;2.67;;;14.60;69.10;;;;;;6047864;29;20075;-74
2023/11/02 11:11:33;;;;;;;6.53;1.63;;;14.70;69.20;;;;;;6046973;29;20475;-75
2023/11/02 11:14:36;;;;;;;6.50;2.05;;;14.70;69.00;;;;;;6051798;29;20035;-73
2023/11/02 11:17:47;;;;;;;2.67;1.13;;;14.80;69.00;;;;;;6065659;29;20768;-73
2023/11/02 11:20:49;;;;;;;6.80;2.35;;;14.80;68.70;;;;;;6039179;29;20109;-73
2023/11/02 11:23:53;;;;;;;6.53;2.47;;;14.80;68.80;;;;;;6027842;29;20033;-72
2023/11/02 11:26:55;;;;;;;7.07;2.78;;;14.80;68.70;;;;;;6028521;29;20040;-74
2023/11/02 11:29:56;;;;;;;12.75;3.47;;;14.80;68.60;;;;;;6026345;29;20125;-74
2023/11/02 11:32:57;;;;;;;4.88;1.95;;;14.80;68.70;;;;;;6049605;29;20117;-73
2023/11/02 11:36:24;;;;;;;5.60;1.55;;;14.80;68.60;;;;;;6052114;29;20040;-75
2023/11/02 11:39:37;;;;;;;6.28;2.65;;;14.80;68.60;;;;;;6051012;29;20037;-73
2023/11/02 11:43:12;;;;;;;15.70;3.95;;;14.70;68.60;;;;;;6063977;29;20106;-73
2023/11/02 11:47:03;;;;;;;3.72;1.60;;;14.80;68.80;;;;;;6049894;29;20463;-73
2023/11/02 11:50:04;;;;;;;6.30;2.60;;;14.80;68.70;;;;;;5956559;29;20059;-74
2023/11/02 11:53:15;;;;;;;15.45;3.92;;;14.80;68.80;;;;;;5955783;29;20039;-73
2023/11/02 11:56:31;;;;;;;9.73;2.60;;;14.80;68.60;;;;;;5955611;29;20090;-72
2023/11/02 11:59:51;;;;;;;4.28;2.38;;;14.70;68.50;;;;;;5955366;29;20119;-75
2023/11/02 12:02:56;;;;;;;2.17;0.85;;;14.70;68.50;;;;;;5955086;29;20043;-73
2023/11/02 12:05:57;;;;;;;3.35;0.80;;;14.60;68.40;;;;;;5954942;29;20177;-73
2023/11/02 12:08:58;;;;;;;1.67;0.98;;;14.60;68.20;;;;;;5955086;29;20056;-75
2023/11/02 12:12:02;;;;;;;7.45;1.38;;;14.60;68.20;;;;;;5939828;29;20114;-74
2023/11/02 12:15:19;;;;;;;1.90;0.80;;;14.50;68.40;;;;;;5954981;29;20442;-73
2023/11/02 12:18:31;;;;;;;3.55;1.25;;;14.40;68.50;;;;;;5954665;29;20043;-73
2023/11/02 12:21:33;;;;;;;4.88;2.05;;;14.40;68.70;;;;;;5938827;29;20483;-72
2023/11/02 12:24:37;;;;;;;5.28;2.20;;;14.30;68.80;;;;;;5933464;30;20448;-74
2023/11/02 12:27:38;;;;;;;12.48;2.85;;;14.30;69.10;;;;;;6025076;29;20049;-73
2023/11/02 12:30:43;;;;;;;10.27;3.95;;;14.30;69.30;;;;;;6027789;29;20130;-74
2023/11/02 12:33:48;;;;;;;3.17;1.60;;;14.30;69.40;;;;;;6049559;29;20075;-74
2023/11/02 12:36:48;;;;;;;1.95;1.10;;;14.30;69.50;;;;;;6049462;29;20056;-72
2023/11/02 12:39:57;;;;;;;2.90;1.70;;;14.40;69.60;;;;;;6048943;29;20033;-74
2023/11/02 12:42:58;;;;;;;3.80;1.05;;;14.40;69.70;;;;;;6053004;29;20057;-72
2023/11/02 12:46:04;;;;;;;3.47;1.25;;;14.40;69.70;;;;;;6052448;29;20136;-72
2023/11/02 12:49:21;;;;;;;2.97;1.23;;;14.50;69.50;;;;;;6049016;29;20357;-74
2023/11/02 12:52:22;;;;;;;5.55;1.30;;;14.60;69.30;;;;;;6048689;29;20165;-73
2023/11/02 12:55:25;;;;;;;1.75;1.20;;;14.60;69.10;;;;;;6049091;29;20157;-74
2023/11/02 12:58:27;;;;;;;3.20;1.10;;;14.70;69.00;;;;;;6048481;29;20125;-75
2023/11/02 13:01:53;;;;;;;2.72;1.15;;;14.80;68.70;;;;;;6041759;29;20538;-72
2023/11/02 13:04:55;;;;;;;6.28;1.23;;;14.80;68.50;;;;;;6048748;29;20120;-74
2023/11/02 13:07:56;;;;;;;4.53;0.90;;;14.70;68.10;;;;;;6048058;29;20171;-74
2023/11/02 13:10:59;;;;;;;6.43;1.17;;;14.70;68.10;;;;;;6044491;29;20037;-74
2023/11/02 13:14:00;;;;;;;3.05;0.90;;;14.70;68.30;;;;;;6024468;29;20060;-74
2023/11/02 13:17:03;;;;;;;5.90;0.90;;;14.70;67.80;;;;;;6029192;29;20045;-75
2023/11/02 13:20:06;;;;;;;6.57;0.75;;;14.70;67.60;;;;;;6052949;29;20072;-74
2023/11/02 13:23:07;;;;;;;1.27;0.77;;;14.80;67.40;;;;;;6055740;29;20037;-74
2023/11/02 13:26:10;;;;;;;4.22;1.40;;;14.90;67.30;;;;;;6057006;29;20654;-75
2023/11/02 13:29:11;;;;;;;2.33;1.00;;;14.90;67.30;;;;;;6055228;29;20052;-74
2023/11/02 13:32:12;;;;;;;4.63;1.20;;;14.90;67.00;;;;;;6054233;29;20036;-74
2023/11/02 13:35:13;;;;;;;2.80;1.17;;;14.80;66.70;;;;;;6055966;29;20397;-74
2023/11/02 13:38:14;;;;;;;3.83;1.45;;;14.80;67.10;;;;;;6055597;29;20074;-74
2023/11/02 13:41:15;;;;;;;1.35;0.95;;;14.80;67.20;;;;;;6055631;29;20619;-72
2023/11/02 13:44:16;;;;;;;3.00;0.80;;;14.80;67.40;;;;;;6055584;29;20037;-73
2023/11/02 13:47:18;;;;;;;2.42;0.90;;;14.80;67.10;;;;;;6070433;29;20037;-76
2023/11/02 13:50:18;;;;;;;1.15;0.70;;;14.80;67.10;;;;;;6056089;29;20045;-74
2023/11/02 13:53:22;;;;;;;1.23;0.77;;;14.80;67.00;;;;;;6070368;29;20115;-75
2023/11/02 13:56:22;;;;;;;1.45;0.95;;;14.90;67.00;;;;;;6069982;29;20120;-74
2023/11/02 13:59:23;;;;;;;1.90;1.15;;;15.00;66.70;;;;;;6055798;29;20084;-73
2023/11/02 14:02:24;;;;;;;2.15;1.25;;;15.10;66.60;;;;;;6056036;29;20047;-72
2023/11/02 14:05:25;;;;;;;6.63;2.30;;;15.20;66.40;;;;;;6057129;29;20116;-73
2023/11/02 14:08:26;;;;;;;5.50;2.17;;;15.30;66.40;;;;;;6055662;29;20085;-76
2023/11/02 14:11:27;;;;;;;1.90;1.70;;;15.40;66.20;;;;;;6055555;29;20719;-73
2023/11/02 14:14:28;;;;;;;1.58;0.77;;;15.50;65.70;;;;;;6054102;29;20458;-74
2023/11/02 14:17:29;;;;;;;2.80;0.85;;;15.50;65.10;;;;;;6056203;29;20132;-74
2023/11/02 14:20:30;;;;;;;1.98;0.95;;;15.40;64.60;;;;;;6045968;29;20838;-73
2023/11/02 14:23:31;;;;;;;3.80;1.55;;;15.30;64.70;;;;;;6031752;29;20029;-76
2023/11/02 14:26:31;;;;;;;2.17;1.27;;;15.20;65.00;;;;;;6033406;29;20101;-73
2023/11/02 14:29:32;;;;;;;5.80;1.77;;;15.20;65.10;;;;;;6028069;29;20086;-73
2023/11/02 14:32:33;;;;;;;6.50;2.58;;;15.30;65.20;;;;;;6028332;29;20040;-74
2023/11/02 14:35:34;;;;;;;4.47;1.48;;;15.30;66.20;;;;;;6044168;29;20033;-73
2023/11/02 14:38:35;;;;;;;6.53;1.85;;;15.40;65.20;;;;;;6032353;29;20062;-72
2023/11/02 14:41:36;;;;;;;2.17;0.95;;;15.50;64.80;;;;;;6056325;29;20076;-73
2023/11/02 14:44:37;;;;;;;6.90;1.25;;;15.60;64.50;;;;;;6042462;29;20107;-75
2023/11/02 14:47:39;;;;;;;6.22;2.13;;;15.50;65.00;;;;;;6050471;29;20040;-74
2023/11/02 14:50:39;;;;;;;1.73;0.98;;;15.40;64.10;;;;;;6051683;29;20135;-73
2023/11/02 14:53:42;;;;;;;3.28;1.58;;;15.30;64.20;;;;;;6046686;29;20089;-72
2023/11/02 14:56:43;;;;;;;6.78;2.08;;;15.10;64.40;;;;;;6050917;29;20044;-72
2023/11/02 14:59:44;;;;;;;2.60;1.05;;;15.10;64.80;;;;;;6051321;29;20037;-72
2023/11/02 15:02:47;;;;;;;5.90;1.30;;;15.00;65.10;;;;;;6052184;29;20152;-75
2023/11/02 15:05:49;;;;;;;9.02;0.95;;;15.00;65.30;;;;;;6051133;29;20052;-74
2023/11/02 15:08:49;;;;;;;1.67;1.10;;;15.00;65.40;;;;;;6051098;29;20033;-73
2023/11/02 15:11:50;;;;;;;15.52;1.45;;;15.10;65.40;;;;;;6040558;29;20045;-74
2023/11/02 15:14:51;;;;;;;1.88;0.93;;;15.10;65.40;;;;;;6028247;29;20029;-76
2023/11/02 15:17:52;;;;;;;5.13;1.30;;;15.10;65.00;;;;;;6028051;29;20132;-75
2023/11/02 15:21:14;;;;;;;3.75;1.20;;;15.20;64.90;;;;;;6040178;29;20044;-72
2023/11/02 15:24:15;;;;;;;4.32;1.92;;;15.20;65.10;;;;;;6032165;29;20465;-72
2023/11/02 15:27:17;;;;;;;5.18;2.53;;;15.20;65.00;;;;;;6032269;29;20041;-73
2023/11/02 15:30:20;;;;;;;4.00;1.48;;;15.30;64.90;;;;;;6046689;29;20188;-73
2023/11/02 15:33:20;;;;;;;1.50;0.80;;;15.40;64.80;;;;;;6024325;29;20445;-73
2023/11/02 15:36:21;;;;;;;1.92;0.90;;;15.40;64.70;;;;;;6008551;29;20137;-73
2023/11/02 15:39:23;;;;;;;5.40;1.83;;;15.30;64.70;;;;;;6023838;29;20155;-73
2023/11/02 15:42:24;;;;;;;3.95;1.50;;;15.30;64.70;;;;;;6030930;29;20052;-74
2023/11/02 15:45:26;;;;;;;4.22;1.70;;;15.20;64.50;;;;;;6048391;29;20108;-74
2023/11/02 15:48:28;;;;;;;3.03;1.50;;;15.20;64.80;;;;;;6031182;29;20080;-75
2023/11/02 15:51:30;;;;;;;13.63;2.17;;;15.20;64.70;;;;;;6047103;29;20273;-75
2023/11/02 15:54:31;;;;;;;3.13;1.38;;;15.20;64.90;;;;;;6047325;29;20060;-73
2023/11/02 15:57:32;;;;;;;1.48;0.98;;;15.20;65.00;;;;;;6046982;29;20082;-74
2023/11/02 16:00:33;;;;;;;2.42;1.23;;;15.20;65.00;;;;;;6031447;29;20080;-72
2023/11/02 16:03:34;;;;;;;6.63;2.25;;;15.20;64.90;;;;;;6047163;29;20044;-74